N324BA KCMH-KCAK
Flight info
| Callsign | N324BA |
|---|---|
| Flight time | 0h 34m |
| Altitude | 19000 |
| Route | HUUVR HUUVR1 |
| Aircraft | C750/M-SBDE3FGHRWXY/S |
Departure
| Time | 2026-05-09 01:32 |
|---|---|
| Airport | John Glenn Columbus International Airport (KCMH) |
Arrival
| Time | 2026-05-09 02:07 |
|---|---|
| Airport | Akron Canton Regional Airport (KCAK) |
| Time | Latitude | Longitude | Altitude | Speed | Heading |
|---|---|---|---|---|---|
| 2026-05-09 00:50 | 40.00647 | -82.90162 | 819 ft | 0 kts | 4° |
| 2026-05-09 01:14 | 40.00649 | -82.90161 | 819 ft | 1 kts | 14° |
| 2026-05-09 01:14 | 40.00648 | -82.90146 | 819 ft | 1 kts | 124° |
| 2026-05-09 01:15 | 40.00646 | -82.90145 | 819 ft | 0 kts | 140° |
| 2026-05-09 01:16 | 40.00645 | -82.90144 | 819 ft | 1 kts | 142° |
| 2026-05-09 01:16 | 40.00618 | -82.90121 | 819 ft | 5 kts | 160° |
| 2026-05-09 01:16 | 40.00589 | -82.90128 | 820 ft | 3 kts | 213° |
| 2026-05-09 01:17 | 40.00582 | -82.90137 | 820 ft | 0 kts | 226° |
| 2026-05-09 01:18 | 40.00578 | -82.90143 | 820 ft | 2 kts | 226° |
| 2026-05-09 01:19 | 40.00551 | -82.90159 | 821 ft | 8 kts | 194° |
| 2026-05-09 01:19 | 40.00510 | -82.90212 | 823 ft | 11 kts | 189° |
| 2026-05-09 01:19 | 40.00433 | -82.90217 | 824 ft | 2 kts | 184° |
| 2026-05-09 01:19 | 40.00411 | -82.90210 | 824 ft | 4 kts | 154° |
| 2026-05-09 01:20 | 40.00398 | -82.90179 | 825 ft | 6 kts | 100° |
| 2026-05-09 01:20 | 40.00393 | -82.90093 | 824 ft | 14 kts | 93° |
| 2026-05-09 01:20 | 40.00386 | -82.89964 | 820 ft | 15 kts | 95° |
| 2026-05-09 01:20 | 40.00378 | -82.89829 | 817 ft | 14 kts | 95° |
| 2026-05-09 01:21 | 40.00375 | -82.89750 | 817 ft | 3 kts | 92° |
| 2026-05-09 01:21 | 40.00373 | -82.89739 | 817 ft | 0 kts | 99° |
| 2026-05-09 01:21 | 40.00359 | -82.89724 | 817 ft | 6 kts | 175° |
| 2026-05-09 01:21 | 40.00347 | -82.89740 | 817 ft | 0 kts | 232° |
| 2026-05-09 01:24 | 40.00334 | -82.89752 | 817 ft | 6 kts | 204° |
| 2026-05-09 01:25 | 40.00255 | -82.89760 | 817 ft | 16 kts | 184° |
| 2026-05-09 01:25 | 40.00187 | -82.89758 | 818 ft | 5 kts | 148° |
| 2026-05-09 01:25 | 40.00167 | -82.89719 | 817 ft | 7 kts | 107° |
| 2026-05-09 01:25 | 40.00162 | -82.89645 | 816 ft | 11 kts | 94° |
| 2026-05-09 01:26 | 40.00155 | -82.89526 | 816 ft | 15 kts | 95° |
| 2026-05-09 01:26 | 40.00149 | -82.89368 | 816 ft | 19 kts | 95° |
| 2026-05-09 01:26 | 40.00136 | -82.89196 | 817 ft | 17 kts | 95° |
| 2026-05-09 01:26 | 40.00129 | -82.89065 | 818 ft | 13 kts | 94° |
| 2026-05-09 01:27 | 40.00122 | -82.88951 | 819 ft | 14 kts | 95° |
| 2026-05-09 01:27 | 40.00113 | -82.88793 | 820 ft | 21 kts | 94° |
| 2026-05-09 01:27 | 40.00104 | -82.88626 | 821 ft | 16 kts | 94° |
| 2026-05-09 01:27 | 40.00097 | -82.88500 | 820 ft | 12 kts | 94° |
| 2026-05-09 01:28 | 40.00092 | -82.88401 | 819 ft | 9 kts | 98° |
| 2026-05-09 01:28 | 40.00086 | -82.88314 | 819 ft | 11 kts | 94° |
| 2026-05-09 01:28 | 40.00079 | -82.88189 | 819 ft | 16 kts | 92° |
| 2026-05-09 01:28 | 40.00071 | -82.88046 | 818 ft | 15 kts | 95° |
| 2026-05-09 01:29 | 40.00079 | -82.87961 | 816 ft | 6 kts | 54° |
| 2026-05-09 01:29 | 40.00081 | -82.87958 | 816 ft | 0 kts | 50° |
| 2026-05-09 01:31 | 40.00082 | -82.87957 | 816 ft | 1 kts | 49° |
| 2026-05-09 01:31 | 40.00112 | -82.87935 | 816 ft | 7 kts | 15° |
| 2026-05-09 01:31 | 40.00149 | -82.87940 | 816 ft | 5 kts | 329° |
| 2026-05-09 01:31 | 40.00163 | -82.87982 | 816 ft | 0 kts | 274° |
| 2026-05-09 01:32 | 40.00168 | -82.88058 | 817 ft | 38 kts | 274° |
| 2026-05-09 01:32 | 40.00216 | -82.88907 | 823 ft | 140 kts | 274° |
| 2026-05-09 01:32 | 40.00285 | -82.90256 | 1267 ft | 149 kts | 273° |
| 2026-05-09 01:32 | 40.00335 | -82.91627 | 2006 ft | 157 kts | 271° |
| 2026-05-09 01:33 | 40.00380 | -82.93095 | 2710 ft | 165 kts | 271° |
| 2026-05-09 01:33 | 40.00446 | -82.94589 | 3592 ft | 163 kts | 271° |
| 2026-05-09 01:33 | 40.00547 | -82.96039 | 4520 ft | 162 kts | 271° |
| 2026-05-09 01:33 | 40.00691 | -82.97595 | 5027 ft | 185 kts | 272° |
| 2026-05-09 01:34 | 40.00883 | -82.99459 | 5015 ft | 230 kts | 274° |
| 2026-05-09 01:34 | 40.01188 | -83.01547 | 4785 ft | 234 kts | 276° |
| 2026-05-09 01:34 | 40.01515 | -83.03580 | 4801 ft | 222 kts | 279° |
| 2026-05-09 01:34 | 40.02114 | -83.05385 | 4760 ft | 223 kts | 301° |
| 2026-05-09 01:35 | 40.03408 | -83.06816 | 4797 ft | 268 kts | 326° |
| 2026-05-09 01:35 | 40.05305 | -83.07306 | 5443 ft | 287 kts | 358° |
| 2026-05-09 01:35 | 40.07214 | -83.06502 | 6546 ft | 299 kts | 29° |
| 2026-05-09 01:35 | 40.08642 | -83.04503 | 7553 ft | 305 kts | 55° |
| 2026-05-09 01:36 | 40.09716 | -83.02081 | 8628 ft | 312 kts | 60° |
| 2026-05-09 01:36 | 40.10762 | -82.99573 | 9699 ft | 318 kts | 58° |
| 2026-05-09 01:36 | 40.11926 | -82.97087 | 10557 ft | 323 kts | 54° |
| 2026-05-09 01:36 | 40.13132 | -82.94604 | 11498 ft | 324 kts | 54° |
| 2026-05-09 01:37 | 40.14308 | -82.92072 | 12419 ft | 328 kts | 55° |
| 2026-05-09 01:37 | 40.15496 | -82.89467 | 13017 ft | 341 kts | 55° |
| 2026-05-09 01:37 | 40.16764 | -82.86729 | 12999 ft | 361 kts | 55° |
| 2026-05-09 01:37 | 40.18103 | -82.83858 | 13003 ft | 378 kts | 55° |
| 2026-05-09 01:38 | 40.19489 | -82.80862 | 13015 ft | 391 kts | 56° |
| 2026-05-09 01:38 | 40.20912 | -82.77773 | 13008 ft | 403 kts | 56° |
| 2026-05-09 01:38 | 40.22376 | -82.74600 | 13006 ft | 412 kts | 56° |
| 2026-05-09 01:38 | 40.23870 | -82.71363 | 13017 ft | 419 kts | 56° |
| 2026-05-09 01:39 | 40.25383 | -82.68076 | 13562 ft | 420 kts | 56° |
| 2026-05-09 01:39 | 40.26887 | -82.64797 | 14249 ft | 422 kts | 56° |
| 2026-05-09 01:39 | 40.28412 | -82.61485 | 14790 ft | 427 kts | 56° |
| 2026-05-09 01:39 | 40.29951 | -82.58139 | 15332 ft | 431 kts | 56° |
| 2026-05-09 01:40 | 40.31504 | -82.54751 | 15907 ft | 436 kts | 56° |
| 2026-05-09 01:40 | 40.33069 | -82.51331 | 16494 ft | 440 kts | 56° |
| 2026-05-09 01:40 | 40.34606 | -82.47963 | 17894 ft | 420 kts | 56° |
| 2026-05-09 01:40 | 40.36090 | -82.44716 | 18729 ft | 423 kts | 55° |
| 2026-05-09 01:41 | 40.37660 | -82.41303 | 18911 ft | 443 kts | 55° |
| 2026-05-09 01:41 | 40.39275 | -82.37772 | 18911 ft | 458 kts | 56° |
| 2026-05-09 01:41 | 40.40921 | -82.34140 | 18912 ft | 468 kts | 56° |
| 2026-05-09 01:41 | 40.42572 | -82.30493 | 18578 ft | 456 kts | 56° |
| 2026-05-09 01:42 | 40.44170 | -82.26975 | 17955 ft | 441 kts | 56° |
| 2026-05-09 01:42 | 40.45689 | -82.23639 | 17467 ft | 422 kts | 56° |
| 2026-05-09 01:42 | 40.47166 | -82.20387 | 16932 ft | 408 kts | 56° |
| 2026-05-09 01:42 | 40.48595 | -82.17231 | 16404 ft | 398 kts | 56° |
| 2026-05-09 01:43 | 40.50034 | -82.14062 | 15880 ft | 414 kts | 56° |
| 2026-05-09 01:43 | 40.51482 | -82.10861 | 15344 ft | 400 kts | 56° |
| 2026-05-09 01:43 | 40.52906 | -82.07699 | 14818 ft | 403 kts | 56° |
| 2026-05-09 01:43 | 40.54314 | -82.04575 | 13957 ft | 395 kts | 56° |
| 2026-05-09 01:44 | 40.55680 | -82.01584 | 13823 ft | 367 kts | 54° |
| 2026-05-09 01:44 | 40.57008 | -81.98742 | 13630 ft | 372 kts | 55° |
| 2026-05-09 01:44 | 40.58414 | -81.95752 | 13353 ft | 395 kts | 55° |
| 2026-05-09 01:44 | 40.59852 | -81.92653 | 13290 ft | 389 kts | 57° |
| 2026-05-09 01:45 | 40.61182 | -81.89606 | 12532 ft | 387 kts | 58° |
| 2026-05-09 01:45 | 40.62515 | -81.86503 | 11722 ft | 388 kts | 58° |
| 2026-05-09 01:45 | 40.63860 | -81.83456 | 11253 ft | 377 kts | 57° |
| 2026-05-09 01:45 | 40.65159 | -81.80554 | 10823 ft | 367 kts | 57° |
| 2026-05-09 01:46 | 40.66430 | -81.77674 | 10481 ft | 351 kts | 58° |
| 2026-05-09 01:46 | 40.67602 | -81.74985 | 10412 ft | 327 kts | 58° |
| 2026-05-09 01:46 | 40.68663 | -81.72343 | 10178 ft | 329 kts | 65° |
| 2026-05-09 01:46 | 40.69573 | -81.69596 | 10123 ft | 323 kts | 65° |
| 2026-05-09 01:47 | 40.70499 | -81.66900 | 9501 ft | 326 kts | 64° |
| 2026-05-09 01:47 | 40.71433 | -81.64172 | 9114 ft | 324 kts | 65° |
| 2026-05-09 01:47 | 40.72338 | -81.61468 | 8686 ft | 322 kts | 65° |
| 2026-05-09 01:47 | 40.73231 | -81.58792 | 8296 ft | 315 kts | 65° |
| 2026-05-09 01:48 | 40.74183 | -81.56202 | 7697 ft | 313 kts | 57° |
| 2026-05-09 01:48 | 40.75576 | -81.54018 | 7122 ft | 308 kts | 44° |
| 2026-05-09 01:48 | 40.77057 | -81.52003 | 6521 ft | 305 kts | 43° |
| 2026-05-09 01:48 | 40.78510 | -81.49967 | 5916 ft | 303 kts | 45° |
| 2026-05-09 01:49 | 40.79917 | -81.47915 | 5350 ft | 299 kts | 46° |
| 2026-05-09 01:49 | 40.81297 | -81.45910 | 5020 ft | 288 kts | 45° |
| 2026-05-09 01:49 | 40.82637 | -81.43997 | 5021 ft | 281 kts | 44° |
| 2026-05-09 01:49 | 40.84000 | -81.42054 | 5032 ft | 301 kts | 45° |
| 2026-05-09 01:50 | 40.85436 | -81.39988 | 5038 ft | 298 kts | 45° |
| 2026-05-09 01:50 | 40.86799 | -81.38009 | 5038 ft | 286 kts | 45° |
| 2026-05-09 01:50 | 40.88133 | -81.36090 | 5030 ft | 283 kts | 44° |
| 2026-05-09 01:50 | 40.89495 | -81.34149 | 5025 ft | 295 kts | 44° |
| 2026-05-09 01:51 | 40.90883 | -81.32194 | 5028 ft | 287 kts | 44° |
| 2026-05-09 01:51 | 40.92240 | -81.30268 | 5018 ft | 286 kts | 44° |
| 2026-05-09 01:51 | 40.93601 | -81.28329 | 4861 ft | 284 kts | 44° |
| 2026-05-09 01:51 | 40.94904 | -81.26468 | 4857 ft | 269 kts | 44° |
| 2026-05-09 01:52 | 40.96149 | -81.24697 | 4835 ft | 257 kts | 44° |
| 2026-05-09 01:52 | 40.97342 | -81.22999 | 4803 ft | 248 kts | 43° |
| 2026-05-09 01:52 | 40.98502 | -81.21348 | 4695 ft | 245 kts | 43° |
| 2026-05-09 01:52 | 40.99661 | -81.19700 | 4527 ft | 242 kts | 44° |
| 2026-05-09 01:53 | 41.00805 | -81.18067 | 4162 ft | 243 kts | 43° |
| 2026-05-09 01:53 | 41.01952 | -81.16435 | 3866 ft | 239 kts | 42° |
| 2026-05-09 01:53 | 41.03312 | -81.15356 | 3316 ft | 231 kts | 10° |
| 2026-05-09 01:53 | 41.04875 | -81.14977 | 3032 ft | 221 kts | 1° |
| 2026-05-09 01:54 | 41.06382 | -81.14664 | 3048 ft | 217 kts | 1° |
| 2026-05-09 01:54 | 41.07849 | -81.14341 | 3040 ft | 212 kts | 1° |
| 2026-05-09 01:54 | 41.09320 | -81.14021 | 3039 ft | 215 kts | 1° |
| 2026-05-09 01:54 | 41.10775 | -81.13972 | 2957 ft | 203 kts | 335° |
| 2026-05-09 01:55 | 41.11754 | -81.15082 | 2932 ft | 180 kts | 289° |
| 2026-05-09 01:55 | 41.11952 | -81.16648 | 2990 ft | 168 kts | 271° |
| 2026-05-09 01:55 | 41.12032 | -81.18151 | 2997 ft | 155 kts | 271° |
| 2026-05-09 01:55 | 41.12126 | -81.19491 | 3008 ft | 138 kts | 271° |
| 2026-05-09 01:56 | 41.12228 | -81.20686 | 2929 ft | 126 kts | 271° |
| 2026-05-09 01:56 | 41.12331 | -81.21834 | 2811 ft | 123 kts | 271° |
| 2026-05-09 01:56 | 41.12436 | -81.22915 | 2821 ft | 115 kts | 271° |
| 2026-05-09 01:56 | 41.12536 | -81.23950 | 2821 ft | 112 kts | 271° |
| 2026-05-09 01:57 | 41.12637 | -81.24985 | 2826 ft | 115 kts | 271° |
| 2026-05-09 01:57 | 41.12738 | -81.26050 | 2834 ft | 118 kts | 271° |
| 2026-05-09 01:57 | 41.12840 | -81.27135 | 2839 ft | 119 kts | 271° |
| 2026-05-09 01:57 | 41.12944 | -81.28234 | 2838 ft | 120 kts | 272° |
| 2026-05-09 01:58 | 41.13044 | -81.29459 | 2839 ft | 145 kts | 271° |
| 2026-05-09 01:58 | 41.13140 | -81.30879 | 2857 ft | 167 kts | 271° |
| 2026-05-09 01:58 | 41.13239 | -81.32382 | 2835 ft | 160 kts | 271° |
| 2026-05-09 01:58 | 41.13346 | -81.33833 | 2834 ft | 157 kts | 271° |
| 2026-05-09 01:59 | 41.13453 | -81.35278 | 2824 ft | 158 kts | 271° |
| 2026-05-09 01:59 | 41.13558 | -81.36729 | 2827 ft | 158 kts | 271° |
| 2026-05-09 01:59 | 41.13660 | -81.38183 | 2817 ft | 158 kts | 271° |
| 2026-05-09 01:59 | 41.13762 | -81.39626 | 2825 ft | 156 kts | 271° |
| 2026-05-09 02:00 | 41.13852 | -81.41055 | 2817 ft | 154 kts | 269° |
| 2026-05-09 02:00 | 41.13382 | -81.42261 | 2698 ft | 155 kts | 220° |
| 2026-05-09 02:00 | 41.12411 | -81.42745 | 2795 ft | 144 kts | 201° |
| 2026-05-09 02:00 | 41.11467 | -81.42880 | 2827 ft | 130 kts | 196° |
| 2026-05-09 02:01 | 41.10585 | -81.42968 | 2816 ft | 124 kts | 196° |
| 2026-05-09 02:01 | 41.09752 | -81.43031 | 2814 ft | 120 kts | 196° |
| 2026-05-09 02:01 | 41.08903 | -81.43085 | 2824 ft | 124 kts | 195° |
| 2026-05-09 02:01 | 41.08046 | -81.43132 | 2823 ft | 122 kts | 196° |
| 2026-05-09 02:02 | 41.07208 | -81.43178 | 2823 ft | 120 kts | 196° |
| 2026-05-09 02:02 | 41.06367 | -81.43228 | 2828 ft | 122 kts | 196° |
| 2026-05-09 02:02 | 41.05805 | -81.43260 | 2825 ft | 122 kts | 195° |
| 2026-05-09 02:02 | 41.04970 | -81.43308 | 2825 ft | 119 kts | 195° |
| 2026-05-09 02:03 | 41.04154 | -81.43355 | 2823 ft | 116 kts | 195° |
| 2026-05-09 02:03 | 41.03353 | -81.43401 | 2820 ft | 114 kts | 196° |
| 2026-05-09 02:03 | 41.02554 | -81.43452 | 2833 ft | 119 kts | 196° |
| 2026-05-09 02:03 | 41.01727 | -81.43501 | 2832 ft | 119 kts | 195° |
| 2026-05-09 02:04 | 41.00883 | -81.43554 | 2832 ft | 122 kts | 195° |
| 2026-05-09 02:04 | 41.00035 | -81.43605 | 2750 ft | 125 kts | 194° |
| 2026-05-09 02:04 | 40.99158 | -81.43656 | 2582 ft | 126 kts | 194° |
| 2026-05-09 02:04 | 40.98289 | -81.43719 | 2379 ft | 124 kts | 194° |
| 2026-05-09 02:05 | 40.97438 | -81.43767 | 2237 ft | 123 kts | 191° |
| 2026-05-09 02:05 | 40.96576 | -81.43817 | 2086 ft | 125 kts | 188° |
| 2026-05-09 02:05 | 40.95695 | -81.43857 | 1884 ft | 130 kts | 185° |
| 2026-05-09 02:05 | 40.94779 | -81.43906 | 1684 ft | 133 kts | 182° |
| 2026-05-09 02:06 | 40.93856 | -81.43950 | 1502 ft | 132 kts | 182° |
| 2026-05-09 02:06 | 40.92938 | -81.44006 | 1309 ft | 133 kts | 180° |
| 2026-05-09 02:06 | 40.92044 | -81.44062 | 1219 ft | 116 kts | 181° |
| 2026-05-09 02:07 | 40.91423 | -81.44101 | 1219 ft | 3 kts | 252° |
| 2026-05-09 02:07 | 40.91423 | -81.44153 | 1219 ft | 7 kts | 294° |
| 2026-05-09 02:07 | 40.91463 | -81.44207 | 1218 ft | 0 kts | 317° |
| 2026-05-09 02:07 | 40.91464 | -81.44208 | 1218 ft | 2 kts | 317° |
| 2026-05-09 02:08 | 40.91466 | -81.44211 | 1218 ft | 0 kts | 318° |
| 2026-05-09 02:08 | 40.91469 | -81.44214 | 1218 ft | 3 kts | 318° |
| 2026-05-09 02:09 | 40.91503 | -81.44254 | 1217 ft | 10 kts | 319° |
| 2026-05-09 02:09 | 40.91558 | -81.44322 | 1217 ft | 10 kts | 316° |
| 2026-05-09 02:09 | 40.91603 | -81.44376 | 1217 ft | 8 kts | 321° |
| 2026-05-09 02:09 | 40.91654 | -81.44438 | 1217 ft | 13 kts | 319° |
| 2026-05-09 02:10 | 40.91716 | -81.44513 | 1218 ft | 11 kts | 316° |
| 2026-05-09 02:10 | 40.91796 | -81.44611 | 1218 ft | 19 kts | 316° |
| 2026-05-09 02:10 | 40.91889 | -81.44723 | 1218 ft | 16 kts | 318° |
| 2026-05-09 02:10 | 40.91965 | -81.44813 | 1218 ft | 13 kts | 318° |
| 2026-05-09 02:11 | 40.92015 | -81.44873 | 1218 ft | 5 kts | 319° |
| 2026-05-09 02:11 | 40.92032 | -81.44889 | 1218 ft | 2 kts | 329° |
| 2026-05-09 02:11 | 40.92065 | -81.44876 | 1219 ft | 7 kts | 60° |
| 2026-05-09 02:11 | 40.92070 | -81.44828 | 1219 ft | 4 kts | 85° |
| 2026-05-09 02:12 | 40.92071 | -81.44801 | 1219 ft | 5 kts | 91° |
| 2026-05-09 02:12 | 40.92065 | -81.44725 | 1219 ft | 12 kts | 95° |
| 2026-05-09 02:12 | 40.92063 | -81.44613 | 1220 ft | 11 kts | 92° |
| 2026-05-09 02:12 | 40.92059 | -81.44523 | 1220 ft | 9 kts | 94° |
| 2026-05-09 02:13 | 40.92057 | -81.44431 | 1220 ft | 11 kts | 90° |
| 2026-05-09 02:13 | 40.92054 | -81.44317 | 1220 ft | 12 kts | 88° |
| 2026-05-09 02:13 | 40.92054 | -81.44280 | 1220 ft | 0 kts | 97° |
| 2026-05-09 02:14 | 40.92053 | -81.44274 | 1220 ft | 3 kts | 100° |
| 2026-05-09 02:14 | 40.92049 | -81.44222 | 1220 ft | 5 kts | 92° |
| 2026-05-09 02:15 | 40.92048 | -81.44178 | 1220 ft | 7 kts | 92° |
| 2026-05-09 02:15 | 40.92047 | -81.44086 | 1219 ft | 13 kts | 91° |
| 2026-05-09 02:15 | 40.92044 | -81.43966 | 1220 ft | 12 kts | 91° |
| 2026-05-09 02:15 | 40.92042 | -81.43860 | 1223 ft | 8 kts | 86° |
| 2026-05-09 02:16 | 40.92052 | -81.43797 | 1226 ft | 8 kts | 75° |
| 2026-05-09 02:16 | 40.92068 | -81.43723 | 1228 ft | 9 kts | 73° |
| 2026-05-09 02:16 | 40.92080 | -81.43664 | 1230 ft | 4 kts | 78° |
| 2026-05-09 02:16 | 40.92082 | -81.43649 | 1230 ft | 0 kts | 83° |
| 2026-05-09 02:17 | 40.92082 | -81.43646 | 1230 ft | 3 kts | 85° |
| 2026-05-09 02:17 | 40.92059 | -81.43588 | 1230 ft | 14 kts | 138° |
| 2026-05-09 02:17 | 40.91981 | -81.43495 | 1231 ft | 11 kts | 144° |
| 2026-05-09 02:17 | 40.91919 | -81.43492 | 1230 ft | 7 kts | 211° |
| 2026-05-09 02:18 | 40.91864 | -81.43538 | 1229 ft | 8 kts | 206° |
| 2026-05-09 02:18 | 40.91844 | -81.43515 | 1228 ft | 7 kts | 119° |
| 2026-05-09 02:18 | 40.91836 | -81.43457 | 1229 ft | 6 kts | 96° |
| 2026-05-09 02:18 | 40.91809 | -81.43446 | 1228 ft | 6 kts | 197° |
| 2026-05-09 02:19 | 40.91771 | -81.43477 | 1227 ft | 0 kts | 217° |